Catàleg de serveis del Meteocat
Campanya meteocatpedra

Dades de l'estació automàtica el Montmell

?
?
Resum diari 22:30 TU
Dades diàries de l'estació meteorològica
Temperatura mitjana 8.1 °C
Temperatura màxima 11.8 °C 12:59 TU
Temperatura mínima 5.4 °C 22:51 TU
Humitat relativa mitjana 79%
Precipitació acumulada 3.9 mm
Ratxa màxima del vent (6 m) 42.8 km/h - 269º 18:58 TU
Irradiació solar global 6.2 MJ/m2

El tram horari està expressat en Temps Universal (TU). Cal sumar una hora en horari d'hivern i dues en horari d'estiu per passar a l'hora oficial.

el Montmell

Metadades estació meteorol´gica
Municipi El Montmell
Comarca Baix Penedès
Altitud 545 m
Data alta 13.07.1995
Estat actual Operativa
Dades de període
Període
TU
TM
°C
TX
°C
TN
°C
HRM
%
PPT
mm
VVM (6 m)
km/h
DVM (6 m)
graus
VVX (6 m)
km/h
RS
W/m2
00:00 - 00:30 8.5 8.7 8.3 68 0.0 12.2 254 28.8 0
00:30 - 01:00 8.4 8.7 8.2 69 0.0 10.8 254 26.6 0
01:00 - 01:30 8.1 8.3 8.0 71 0.0 10.4 250 27.0 0
01:30 - 02:00 7.9 8.1 7.8 72 0.0 9.4 245 23.0 0
02:00 - 02:30 7.7 7.9 7.5 74 0.0 5.4 235 16.6 0
02:30 - 03:00 7.5 7.9 7.1 75 0.0 5.8 266 17.3 0
03:00 - 03:30 7.7 8.0 7.6 74 0.0 5.8 264 21.2 0
03:30 - 04:00 8.0 8.0 7.9 73 0.0 9.7 237 25.2 0
04:00 - 04:30 7.9 8.0 7.8 74 0.0 4.7 282 15.8 0
04:30 - 05:00 7.6 7.7 7.5 76 0.0 2.2 4 9.0 0
05:00 - 05:30 7.2 7.6 6.6 79 0.0 1.8 72 5.4 0
05:30 - 06:00 6.2 6.6 5.9 88 0.1 2.5 182 4.7 0
06:00 - 06:30 5.9 6.0 5.8 93 0.1 1.1 223 3.2 0
06:30 - 07:00 5.9 5.9 5.8 96 0.2 1.4 36 6.5 1
07:00 - 07:30 5.8 5.8 5.7 94 0.5 4.0 27 7.2 5
07:30 - 08:00 5.6 5.7 5.5 96 0.6 2.9 56 7.2 14
08:00 - 08:30 5.8 6.0 5.5 98 1.0 1.8 155 6.1 26
08:30 - 09:00 6.1 6.2 6.0 98 0.7 1.8 207 4.3 20
09:00 - 09:30 6.5 7.2 6.2 98 0.5 1.1 224 3.2 69
09:30 - 10:00 7.2 7.3 7.1 96 0.1 4.0 271 10.4 77
10:00 - 10:30 7.5 7.6 7.3 96 0.0 3.6 281 10.1 74
10:30 - 11:00 7.6 7.7 7.4 96 0.1 1.4 180 5.0 44
11:00 - 11:30 7.7 8.5 7.4 96 0.0 2.5 41 9.4 111
11:30 - 12:00 8.7 9.3 8.1 91 0.0 4.0 2 11.5 382
12:00 - 12:30 9.5 9.9 9.2 82 0.0 3.2 299 9.0 367
12:30 - 13:00 10.5 11.8 9.4 81 0.0 5.8 249 14.8 495
13:00 - 13:30 10.8 11.6 10.3 76 0.0 6.1 266 13.7 486
13:30 - 14:00 11.0 11.6 10.2 74 0.0 7.9 254 16.9 444
14:00 - 14:30 10.7 11.3 10.3 74 0.0 7.2 263 16.2 352
14:30 - 15:00 10.3 10.7 9.8 73 0.0 8.6 259 16.6 273
15:00 - 15:30 9.6 9.8 9.3 76 0.0 10.4 249 27.4 173
15:30 - 16:00 9.2 9.5 8.8 74 0.0 10.1 248 26.3 77
16:00 - 16:30 9.0 9.2 8.7 79 0.0 9.7 253 28.1 15
16:30 - 17:00 9.1 9.3 8.9 80 0.0 11.5 244 29.2 0
17:00 - 17:30 8.8 8.9 8.5 84 0.0 9.7 248 27.7 0
17:30 - 18:00 8.9 9.1 8.6 78 0.0 12.2 247 30.2 0
18:00 - 18:30 8.9 9.1 8.7 71 0.0 13.7 247 40.7 0
18:30 - 19:00 9.0 9.2 8.8 65 0.0 17.3 256 42.8 0
19:00 - 19:30 8.8 9.2 8.5 63 0.0 13.0 260 31.3 0
19:30 - 20:00 8.7 9.0 8.5 63 0.0 16.9 255 40.3 0
20:00 - 20:30 8.6 8.9 8.3 61 0.0 9.7 253 28.8 0
20:30 - 21:00 8.1 8.6 7.5 62 0.0 4.3 267 11.2 0
21:00 - 21:30 7.8 8.2 7.5 63 0.0 5.8 246 24.8 0
21:30 - 22:00 7.6 8.0 7.3 64 0.0 7.2 241 22.7 0
22:00 - 22:30 7.7 7.9 7.3 62 0.0 5.4 251 17.6 0
22:30 - 23:00 6.0 7.5 5.4 71 0.0 2.9 242 6.8 0

Les dades en taronja només han passat un control de qualitat automàtic. Resta pendent la seva validació definitiva.